Time;durP1;ratioP1;P1;durP2;ratioP2;P2;SDS_P1;SDS_P2;PMS_P1;PMS_P2;Temp;Humidity;BMP_temperature;BMP_pressure;BME280_temperature;BME280_humidity;BME280_pressure;Samples;Min_cycle;Max_cycle;Signal;HPM_P1;HPM_P2
2021/04/16 00:01:04;;;;;;;64.60;9.43;;;0.30;1.00;;;;;;5136753;27;20206;-69
2021/04/16 00:03:31;;;;;;;63.20;10.18;;;0.30;1.00;;;;;;5136568;27;20199;-69
2021/04/16 00:05:57;;;;;;;62.67;8.70;;;0.20;1.00;;;;;;5136417;27;20594;-69
2021/04/16 00:08:27;;;;;;;64.05;9.88;;;0.20;1.00;;;;;;5136142;27;20206;-69
2021/04/16 00:10:58;;;;;;;61.85;8.45;;;0.20;1.00;;;;;;5136466;27;20214;-69
2021/04/16 00:13:26;;;;;;;63.15;9.00;;;0.10;1.00;;;;;;5135996;27;20207;-69
2021/04/16 00:15:54;;;;;;;63.35;9.60;;;0.10;1.00;;;;;;5134319;27;20244;-69
2021/04/16 00:18:23;;;;;;;63.55;9.30;;;0.10;1.00;;;;;;5135620;27;20252;-69
2021/04/16 00:20:50;;;;;;;64.40;9.68;;;0.10;1.00;;;;;;5135736;27;20227;-69
2021/04/16 00:23:17;;;;;;;62.65;8.77;;;0.10;1.00;;;;;;5135315;27;20285;-69
2021/04/16 00:25:44;;;;;;;61.83;8.68;;;0.00;1.00;;;;;;5135790;27;20229;-69
2021/04/16 00:28:12;;;;;;;62.92;9.73;;;0.00;1.00;;;;;;5135837;27;20255;-69
2021/04/16 00:30:41;;;;;;;61.97;8.30;;;0.00;1.00;;;;;;5136031;27;20234;-69
2021/04/16 00:33:09;;;;;;;62.50;8.90;;;0.00;1.00;;;;;;5135814;27;20615;-69
2021/04/16 00:35:35;;;;;;;62.45;8.60;;;0.00;1.00;;;;;;5134395;27;20199;-69
2021/04/16 00:38:03;;;;;;;61.42;7.90;;;-0.10;1.00;;;;;;5135608;27;20301;-69
2021/04/16 00:40:33;;;;;;;61.92;9.40;;;-0.10;1.00;;;;;;5135490;27;20262;-69
2021/04/16 00:43:01;;;;;;;63.20;8.95;;;-0.10;1.00;;;;;;5135346;27;20238;-69
2021/04/16 00:45:29;;;;;;;63.40;9.20;;;-0.10;1.00;;;;;;5135436;27;20286;-69
2021/04/16 00:47:58;;;;;;;62.58;8.20;;;-0.20;1.00;;;;;;5135868;27;20293;-69
2021/04/16 00:50:28;;;;;;;64.32;9.13;;;-0.20;1.00;;;;;;5134189;27;20254;-69
2021/04/16 00:52:55;;;;;;;66.38;10.02;;;-0.20;1.00;;;;;;5135059;27;20216;-69
2021/04/16 00:55:23;;;;;;;62.40;8.68;;;-0.20;1.00;;;;;;5135184;27;20238;-69
2021/04/16 00:57:49;;;;;;;62.67;9.07;;;-0.20;1.00;;;;;;5135081;27;20520;-69
2021/04/16 01:00:17;;;;;;;64.05;9.60;;;-0.20;1.00;;;;;;5135010;27;20250;-69
2021/04/16 01:02:43;;;;;;;62.15;8.98;;;-0.30;1.00;;;;;;5134826;27;20259;-69
2021/04/16 01:05:11;;;;;;;62.25;9.15;;;-0.30;1.00;;;;;;5134883;27;20223;-69
2021/04/16 01:07:38;;;;;;;64.05;9.23;;;-0.30;1.00;;;;;;5135419;27;20287;-69
2021/04/16 01:10:06;;;;;;;62.13;8.65;;;-0.30;1.00;;;;;;5134614;27;20309;-69
2021/04/16 01:12:33;;;;;;;64.65;9.88;;;-0.40;1.00;;;;;;5134965;27;20206;-69
2021/04/16 01:15:04;;;;;;;63.47;9.15;;;-0.40;1.00;;;;;;5135016;27;20230;-69
2021/04/16 01:17:31;;;;;;;64.38;9.70;;;-0.40;1.00;;;;;;5134935;27;20214;-69
2021/04/16 01:20:06;;;;;;;66.90;9.88;;;-0.40;1.00;;;;;;5135138;27;20317;-69
2021/04/16 01:22:36;;;;;;;66.40;10.32;;;-0.40;1.00;;;;;;5132926;27;20194;-69
2021/04/16 01:25:07;;;;;;;62.45;8.90;;;-0.50;1.00;;;;;;5134350;27;20253;-69
2021/04/16 01:27:34;;;;;;;63.08;9.68;;;-0.50;1.00;;;;;;5134707;27;20211;-69
2021/04/16 01:30:07;;;;;;;63.70;9.73;;;-0.50;1.00;;;;;;5134542;27;20317;-69
2021/04/16 01:32:35;;;;;;;65.63;11.85;;;-0.50;1.00;;;;;;5134398;27;20260;-69
2021/04/16 01:35:03;;;;;;;63.75;9.60;;;-0.50;1.00;;;;;;5134232;27;20239;-69
2021/04/16 01:37:29;;;;;;;67.60;11.02;;;-0.50;1.00;;;;;;5134519;27;20317;-69
2021/04/16 01:39:56;;;;;;;63.33;9.05;;;-0.60;1.00;;;;;;5133792;27;20233;-69
2021/04/16 01:42:24;;;;;;;64.32;9.95;;;-0.60;1.00;;;;;;5134470;27;20199;-69
2021/04/16 01:44:50;;;;;;;63.80;9.02;;;-0.60;1.00;;;;;;5134036;27;20310;-69
2021/04/16 01:47:17;;;;;;;66.60;9.80;;;-0.60;1.00;;;;;;5133749;27;20203;-69
2021/04/16 01:49:47;;;;;;;63.53;9.43;;;-0.60;1.00;;;;;;5133752;27;20617;-69
2021/04/16 01:52:15;;;;;;;63.53;9.82;;;-0.60;1.00;;;;;;5134047;27;20234;-69
2021/04/16 01:54:44;;;;;;;64.68;9.90;;;-0.60;1.00;;;;;;5132423;27;20333;-69
2021/04/16 01:57:13;;;;;;;63.42;9.60;;;-0.60;1.00;;;;;;5133737;27;20691;-69
2021/04/16 01:59:46;;;;;;;62.50;9.63;;;-0.70;1.00;;;;;;5133699;27;20291;-69
2021/04/16 02:02:14;;;;;;;65.90;10.52;;;-0.70;1.00;;;;;;5133702;27;20245;-69
2021/04/16 02:04:42;;;;;;;65.55;9.98;;;-0.70;1.00;;;;;;5133871;27;20571;-69
2021/04/16 02:07:08;;;;;;;64.22;10.27;;;-0.80;1.00;;;;;;5133798;27;20233;-69
2021/04/16 02:09:37;;;;;;;62.80;9.20;;;-0.80;1.00;;;;;;5133751;27;20279;-69
2021/04/16 02:12:05;;;;;;;65.85;9.80;;;-0.80;1.00;;;;;;5133546;27;20411;-69
2021/04/16 02:14:32;;;;;;;64.28;9.70;;;-0.80;1.00;;;;;;5133505;27;20293;-69
2021/04/16 02:17:03;;;;;;;67.93;10.15;;;-0.80;1.00;;;;;;5133537;27;20211;-69
2021/04/16 02:19:30;;;;;;;62.72;9.70;;;-0.80;1.00;;;;;;5133279;27;20742;-69
2021/04/16 02:21:57;;;;;;;62.55;8.95;;;-0.70;1.00;;;;;;5133358;27;20213;-69
2021/04/16 02:24:24;;;;;;;65.30;8.77;;;-0.70;1.00;;;;;;5132374;27;20234;-69
2021/04/16 02:26:51;;;;;;;63.60;9.13;;;-0.70;1.00;;;;;;5124772;27;20214;-69
2021/04/16 02:29:19;;;;;;;63.85;10.40;;;-0.70;1.00;;;;;;5112470;28;20227;-69
2021/04/16 02:31:46;;;;;;;62.47;9.25;;;-0.70;1.00;;;;;;5113116;28;20279;-69
2021/04/16 02:34:14;;;;;;;63.00;9.57;;;-0.80;1.00;;;;;;5112820;28;20214;-69
2021/04/16 02:36:41;;;;;;;63.15;10.05;;;-0.80;1.00;;;;;;5112454;27;20337;-69
2021/04/16 02:39:08;;;;;;;64.13;9.85;;;-0.80;1.00;;;;;;5112781;28;20309;-69
2021/04/16 02:41:35;;;;;;;64.45;9.32;;;-0.80;1.00;;;;;;5112625;28;20204;-69
2021/04/16 02:44:03;;;;;;;61.65;9.48;;;-0.90;1.00;;;;;;5112307;28;20257;-69
2021/04/16 02:46:29;;;;;;;62.97;9.18;;;-0.90;1.00;;;;;;5112507;28;20231;-69
2021/04/16 02:48:56;;;;;;;65.05;10.30;;;-0.90;1.00;;;;;;5112303;28;20310;-69
2021/04/16 02:51:23;;;;;;;62.47;9.70;;;-0.90;1.00;;;;;;5112226;28;20366;-69
2021/04/16 02:53:49;;;;;;;65.40;10.30;;;-0.90;1.00;;;;;;5111848;28;20298;-69
2021/04/16 02:56:16;;;;;;;62.50;9.30;;;-0.90;1.00;;;;;;5111382;28;20290;-69
2021/04/16 02:58:42;;;;;;;78.70;9.70;;;-1.00;1.00;;;;;;5111420;28;20314;-69
2021/04/16 03:01:09;;;;;;;67.90;12.07;;;-1.00;1.00;;;;;;5112347;28;20290;-69
2021/04/16 03:03:35;;;;;;;63.95;10.15;;;-1.00;1.00;;;;;;5112153;28;20294;-69
2021/04/16 03:06:02;;;;;;;66.78;10.77;;;-1.00;1.00;;;;;;5112320;28;20227;-69
2021/04/16 03:08:29;;;;;;;63.45;10.70;;;-1.00;1.00;;;;;;5112020;28;20286;-69
2021/04/16 03:10:56;;;;;;;67.72;10.00;;;-1.10;1.00;;;;;;5112024;28;20348;-69
2021/04/16 03:13:22;;;;;;;64.88;10.15;;;-1.00;1.00;;;;;;5112369;28;20681;-69
2021/04/16 03:15:50;;;;;;;64.80;10.73;;;-1.00;1.00;;;;;;5112255;28;20286;-69
2021/04/16 03:18:17;;;;;;;64.25;9.82;;;-1.10;1.00;;;;;;5112017;28;20625;-69
2021/04/16 03:20:44;;;;;;;62.83;8.98;;;-1.10;1.00;;;;;;5112153;28;20634;-69
2021/04/16 03:23:10;;;;;;;62.40;9.95;;;-1.10;1.00;;;;;;5111983;28;20203;-69
2021/04/16 03:25:37;;;;;;;64.32;9.30;;;-1.10;1.00;;;;;;5112247;28;20219;-68
2021/04/16 03:28:05;;;;;;;62.88;9.00;;;-1.20;1.00;;;;;;5112119;28;20232;-68
2021/04/16 03:30:32;;;;;;;64.80;9.50;;;-1.20;1.00;;;;;;5111915;28;20722;-68
2021/04/16 03:32:58;;;;;;;62.38;8.68;;;-1.20;1.00;;;;;;5111767;28;20687;-68
2021/04/16 03:35:25;;;;;;;62.83;9.85;;;-1.20;1.00;;;;;;5112001;28;20638;-68
2021/04/16 03:37:52;;;;;;;62.75;9.98;;;-1.20;1.00;;;;;;5111717;28;20217;-68
2021/04/16 03:40:22;;;;;;;62.72;9.38;;;-1.30;1.00;;;;;;5111710;28;20223;-68
2021/04/16 03:42:50;;;;;;;63.55;9.00;;;-1.20;1.00;;;;;;5111886;28;20239;-68
2021/04/16 03:45:17;;;;;;;66.25;8.95;;;-1.20;1.00;;;;;;5111801;28;20361;-68
2021/04/16 03:47:44;;;;;;;64.00;9.45;;;-1.30;1.00;;;;;;5111938;28;20239;-68
2021/04/16 03:50:12;;;;;;;65.15;10.15;;;-1.30;1.00;;;;;;5111556;28;20326;-68
2021/04/16 03:52:38;;;;;;;62.25;9.10;;;-1.40;1.00;;;;;;5111488;28;20206;-68
2021/04/16 03:55:06;;;;;;;63.63;9.95;;;-1.40;1.00;;;;;;5111961;28;20199;-68
2021/04/16 03:57:32;;;;;;;66.15;9.93;;;-1.40;1.00;;;;;;5111781;28;20204;-68
2021/04/16 03:59:59;;;;;;;63.05;9.48;;;-1.40;1.00;;;;;;5111428;28;20255;-68
2021/04/16 04:02:26;;;;;;;64.40;9.50;;;-1.50;1.00;;;;;;5111695;28;20214;-68
2021/04/16 04:04:52;;;;;;;62.30;9.18;;;-1.50;1.00;;;;;;5111563;28;20219;-68
2021/04/16 04:07:19;;;;;;;62.55;9.57;;;-1.50;1.00;;;;;;5111545;28;20295;-68
2021/04/16 04:09:45;;;;;;;64.80;9.32;;;-1.60;1.00;;;;;;5112241;28;20701;-69
2021/04/16 04:12:14;;;;;;;63.10;9.50;;;-1.60;1.00;;;;;;5115547;28;20204;-68
2021/04/16 04:14:40;;;;;;;62.97;9.30;;;-1.60;1.00;;;;;;5115442;28;20741;-68
2021/04/16 04:17:08;;;;;;;63.90;10.07;;;-1.60;1.00;;;;;;5115208;28;20336;-68
2021/04/16 04:19:36;;;;;;;62.33;9.40;;;-1.60;1.00;;;;;;5115232;28;20230;-68
2021/04/16 04:22:04;;;;;;;64.65;10.27;;;-1.60;1.00;;;;;;5115205;28;20233;-68
2021/04/16 04:24:31;;;;;;;63.25;9.30;;;-1.60;1.00;;;;;;5115152;28;20248;-68
2021/04/16 04:26:57;;;;;;;63.70;9.95;;;-1.60;1.00;;;;;;5115274;28;20290;-68
2021/04/16 04:29:25;;;;;;;63.33;10.10;;;-1.60;1.00;;;;;;5115032;28;20310;-68
2021/04/16 04:31:53;;;;;;;62.75;10.52;;;-1.60;1.00;;;;;;5114812;28;20239;-68
2021/04/16 04:34:22;;;;;;;67.70;10.30;;;-1.60;1.00;;;;;;5114785;28;20250;-68
2021/04/16 04:36:50;;;;;;;64.90;10.23;;;-1.60;1.00;;;;;;5114999;28;20204;-68
2021/04/16 04:39:17;;;;;;;63.55;9.75;;;-1.60;1.00;;;;;;5114923;28;20223;-68
2021/04/16 04:41:44;;;;;;;68.97;9.20;;;-1.60;1.00;;;;;;5114983;28;20203;-70
2021/04/16 04:44:11;;;;;;;63.70;9.07;;;-1.50;1.00;;;;;;5114856;28;20209;-68
2021/04/16 04:46:38;;;;;;;65.28;9.45;;;-1.50;1.00;;;;;;5114556;28;20273;-68
2021/04/16 04:49:05;;;;;;;64.50;8.98;;;-1.50;1.00;;;;;;5114526;28;20263;-68
2021/04/16 04:51:33;;;;;;;63.78;9.30;;;-1.50;1.00;;;;;;5114706;28;20292;-68
2021/04/16 04:54:00;;;;;;;62.67;9.55;;;-1.50;1.00;;;;;;5114733;28;20243;-68
2021/04/16 04:56:26;;;;;;;63.30;9.07;;;-1.40;1.00;;;;;;5114488;28;20290;-68
2021/04/16 04:58:53;;;;;;;64.55;9.80;;;-1.40;1.00;;;;;;5114455;27;20347;-68
2021/04/16 05:01:19;;;;;;;61.78;8.38;;;-1.40;1.00;;;;;;5114557;28;20258;-68
2021/04/16 05:03:46;;;;;;;62.38;8.73;;;-1.40;1.00;;;;;;5114487;28;20321;-68
2021/04/16 05:06:12;;;;;;;64.55;9.13;;;-1.40;1.00;;;;;;5114253;28;20318;-69
2021/04/16 05:08:39;;;;;;;63.22;9.90;;;-1.30;1.00;;;;;;5114171;28;20667;-68
2021/04/16 05:11:08;;;;;;;64.57;10.55;;;-1.30;1.00;;;;;;5114834;28;20253;-68
2021/04/16 05:13:34;;;;;;;63.97;9.90;;;-1.20;1.00;;;;;;5113986;28;20694;-69
2021/04/16 05:16:01;;;;;;;63.15;9.80;;;-1.20;1.00;;;;;;5114013;28;20688;-69
2021/04/16 05:18:27;;;;;;;63.33;9.70;;;-1.10;1.00;;;;;;5114255;28;20294;-69
2021/04/16 05:20:53;;;;;;;63.28;9.82;;;-1.00;1.00;;;;;;5114327;28;20589;-68
2021/04/16 05:23:20;;;;;;;62.80;9.40;;;-1.00;1.00;;;;;;5113456;28;20294;-69
2021/04/16 05:25:47;;;;;;;61.78;8.10;;;-0.90;1.00;;;;;;5114184;28;20219;-69
2021/04/16 05:28:14;;;;;;;63.75;8.93;;;-0.80;1.00;;;;;;5114054;27;20208;-69
2021/04/16 05:30:40;;;;;;;68.57;10.45;;;-0.60;1.00;;;;;;5114291;28;20287;-69
2021/04/16 05:33:07;;;;;;;64.05;10.00;;;-0.50;1.00;;;;;;5113970;28;20257;-69
2021/04/16 05:35:33;;;;;;;65.28;10.25;;;-0.30;1.00;;;;;;5113824;28;20694;-69
2021/04/16 05:37:59;;;;;;;64.47;8.68;;;-0.10;1.00;;;;;;5113787;28;20298;-69
2021/04/16 05:40:27;;;;;;;61.92;8.85;;;0.10;1.00;;;;;;5113469;28;20599;-69
2021/04/16 05:42:55;;;;;;;64.25;9.70;;;0.20;1.00;;;;;;5113593;28;20348;-69
2021/04/16 05:45:22;;;;;;;62.58;8.73;;;0.30;1.00;;;;;;5113781;28;20310;-69
2021/04/16 05:47:49;;;;;;;62.38;8.70;;;0.50;1.00;;;;;;5113785;28;20233;-69
2021/04/16 05:50:17;;;;;;;64.22;9.48;;;0.60;1.00;;;;;;5113582;28;20259;-69
2021/04/16 05:52:43;;;;;;;63.28;9.27;;;0.70;1.00;;;;;;5113546;28;20210;-69
2021/04/16 05:55:11;;;;;;;62.55;8.32;;;0.80;1.00;;;;;;5113358;28;20207;-69
2021/04/16 05:57:37;;;;;;;63.08;9.15;;;0.90;1.00;;;;;;5114057;28;20214;-69
2021/04/16 06:00:07;;;;;;;60.28;7.30;;;1.10;1.00;;;;;;5113754;27;20256;-69
2021/04/16 06:02:37;;;;;;;63.80;8.48;;;1.20;1.00;;;;;;5113405;28;20684;-69
2021/04/16 06:05:06;;;;;;;63.97;8.27;;;1.30;1.00;;;;;;5113443;28;20268;-69
2021/04/16 06:07:33;;;;;;;62.70;8.55;;;1.40;1.00;;;;;;5114137;27;20298;-69
2021/04/16 06:09:59;;;;;;;59.00;6.95;;;1.60;1.00;;;;;;5113680;28;20637;-68
2021/04/16 06:12:26;;;;;;;61.30;7.63;;;1.70;1.00;;;;;;5115140;28;20212;-68
2021/04/16 06:14:53;;;;;;;62.05;7.75;;;1.90;1.00;;;;;;5114562;28;20207;-68
2021/04/16 06:17:20;;;;;;;61.45;8.43;;;2.00;1.00;;;;;;5113154;28;20682;-69
2021/04/16 06:19:49;;;;;;;62.45;8.50;;;2.00;1.00;;;;;;5112953;28;20737;-69
2021/04/16 06:22:17;;;;;;;62.47;7.75;;;2.20;1.00;;;;;;5113052;28;20252;-68
2021/04/16 06:24:43;;;;;;;60.78;7.47;;;2.30;1.00;;;;;;5112852;28;20230;-68
2021/04/16 06:27:10;;;;;;;60.83;7.47;;;2.40;1.00;;;;;;5113119;28;20288;-69
2021/04/16 06:29:37;;;;;;;61.28;7.20;;;2.60;1.00;;;;;;5112777;28;20226;-69
2021/04/16 06:32:03;;;;;;;60.20;7.15;;;2.80;1.00;;;;;;5112619;27;20668;-69
2021/04/16 06:34:30;;;;;;;62.63;7.72;;;3.00;1.00;;;;;;5111932;28;20294;-69
2021/04/16 06:36:57;;;;;;;62.35;8.07;;;3.20;1.00;;;;;;5112447;28;20623;-69
2021/04/16 06:39:23;;;;;;;60.92;8.10;;;3.30;1.00;;;;;;5112352;28;20314;-69
2021/04/16 06:41:51;;;;;;;62.17;8.05;;;3.40;1.00;;;;;;5112514;27;20207;-69
2021/04/16 06:44:21;;;;;;;61.03;7.55;;;3.40;1.00;;;;;;5112856;28;20211;-68
2021/04/16 06:46:51;;;;;;;61.70;7.18;;;3.40;1.00;;;;;;5112672;28;20314;-68
2021/04/16 06:49:22;;;;;;;63.00;7.53;;;3.40;1.00;;;;;;5112534;28;20370;-68
2021/04/16 06:52:01;;;;;;;62.63;7.93;;;3.50;1.00;;;;;;5112880;28;20208;-68
2021/04/16 06:54:32;;;;;;;60.47;7.20;;;3.60;1.00;;;;;;5112772;28;20290;-68
2021/04/16 06:56:59;;;;;;;61.47;8.10;;;3.70;1.00;;;;;;5112764;28;20200;-68
2021/04/16 06:59:29;;;;;;;60.72;7.20;;;3.90;1.00;;;;;;5112540;28;20314;-67
2021/04/16 07:01:59;;;;;;;62.42;8.13;;;4.10;1.00;;;;;;5112366;27;20203;-68
2021/04/16 07:04:41;;;;;;;60.60;7.55;;;4.30;1.00;;;;;;5112498;28;20192;-68
2021/04/16 07:07:24;;;;;;;59.90;7.13;;;4.40;1.00;;;;;;5112630;28;20231;-68
2021/04/16 07:09:54;;;;;;;60.67;7.05;;;4.50;1.00;;;;;;5112656;28;20314;-68
2021/04/16 07:12:21;;;;;;;61.25;7.25;;;4.60;1.00;;;;;;5112396;28;20294;-68
2021/04/16 07:14:50;;;;;;;59.33;6.43;;;4.70;1.00;;;;;;5117606;28;20555;-67
2021/04/16 07:17:19;;;;;;;59.72;7.10;;;4.80;1.00;;;;;;5120085;27;20336;-68
2021/04/16 07:19:45;;;;;;;61.08;7.60;;;4.80;1.00;;;;;;5132482;27;20338;-69
2021/04/16 07:22:20;;;;;;;61.25;7.65;;;4.90;1.00;;;;;;5132420;27;20298;-68
2021/04/16 07:24:48;;;;;;;62.03;8.50;;;4.90;1.00;;;;;;5132444;27;20282;-67
2021/04/16 07:27:18;;;;;;;60.15;7.40;;;5.00;1.00;;;;;;5132352;27;20698;-69
2021/04/16 07:29:47;;;;;;;60.28;7.18;;;5.20;1.00;;;;;;5131305;27;20225;-69
2021/04/16 07:32:18;;;;;;;59.70;7.13;;;5.30;1.00;;;;;;5132221;27;20298;-69
2021/04/16 07:34:47;;;;;;;59.38;6.88;;;5.40;1.00;;;;;;5132414;27;20587;-69
2021/04/16 07:37:19;;;;;;;64.03;10.30;;;5.50;1.00;;;;;;5132137;27;20291;-70
2021/04/16 07:39:51;;;;;;;59.97;8.00;;;5.70;1.00;;;;;;5132146;27;20233;-69
2021/04/16 07:42:36;;;;;;;59.88;7.35;;;5.80;1.00;;;;;;5132327;27;20206;-69
2021/04/16 07:45:09;;;;;;;60.28;6.70;;;5.90;1.00;;;;;;5133112;27;20619;-70
2021/04/16 07:47:38;;;;;;;59.42;6.50;;;5.90;1.00;;;;;;5136601;27;20312;-69
2021/04/16 07:50:09;;;;;;;62.50;9.07;;;6.00;1.00;;;;;;5135985;27;20233;-69
2021/04/16 07:52:39;;;;;;;63.92;7.63;;;6.10;1.00;;;;;;5136142;27;20238;-69
2021/04/16 07:55:23;;;;;;;63.85;7.40;;;6.10;1.00;;;;;;5136077;27;20241;-70
2021/04/16 07:58:01;;;;;;;60.25;6.40;;;6.20;1.00;;;;;;5136189;27;20309;-69
2021/04/16 08:00:32;;;;;;;60.35;6.63;;;6.20;1.00;;;;;;5134122;27;20215;-68
2021/04/16 08:03:22;;;;;;;59.30;6.10;;;6.20;1.00;;;;;;5135814;27;20200;-69
2021/04/16 08:05:51;;;;;;;60.03;6.25;;;6.20;1.00;;;;;;5132206;27;20306;-68
2021/04/16 08:08:25;;;;;;;59.20;6.70;;;6.20;1.00;;;;;;5135742;27;20203;-69
2021/04/16 08:11:07;;;;;;;59.45;6.82;;;6.10;1.00;;;;;;5136146;27;20254;-68
2021/04/16 08:13:35;;;;;;;59.53;6.10;;;6.10;1.00;;;;;;5135748;27;20237;-68
2021/04/16 08:16:12;;;;;;;62.08;8.23;;;6.10;1.00;;;;;;5135730;27;20230;-68
2021/04/16 08:18:40;;;;;;;60.15;6.72;;;6.10;1.00;;;;;;5135637;27;20237;-68
2021/04/16 08:21:12;;;;;;;59.58;6.40;;;6.10;1.00;;;;;;5135693;27;20202;-69
2021/04/16 08:23:53;;;;;;;62.63;7.38;;;6.20;1.00;;;;;;5135239;27;20199;-68
2021/04/16 08:26:22;;;;;;;60.85;7.13;;;6.30;1.00;;;;;;5135583;27;20222;-68
2021/04/16 08:28:54;;;;;;;60.08;6.50;;;6.50;1.00;;;;;;5135482;27;20254;-68
2021/04/16 08:31:26;;;;;;;66.00;11.27;;;6.70;1.00;;;;;;5134307;27;20636;-68
2021/04/16 08:34:00;;;;;;;63.65;9.30;;;6.80;1.00;;;;;;5134919;27;20683;-69
2021/04/16 08:36:31;;;;;;;61.25;8.38;;;6.80;1.00;;;;;;5135215;27;20203;-69
2021/04/16 08:39:01;;;;;;;62.75;8.40;;;6.90;1.00;;;;;;5135291;27;20223;-70
2021/04/16 08:41:32;;;;;;;60.28;6.72;;;7.00;1.00;;;;;;5135543;27;20301;-69
2021/04/16 08:44:01;;;;;;;59.20;6.20;;;7.10;1.00;;;;;;5135658;27;20230;-69
2021/04/16 08:46:33;;;;;;;58.80;5.90;;;7.30;1.00;;;;;;5134962;27;20344;-68
2021/04/16 08:49:08;;;;;;;62.40;6.43;;;7.50;1.00;;;;;;5134871;27;20227;-68
2021/04/16 08:51:36;;;;;;;59.60;6.68;;;7.60;1.00;;;;;;5135398;27;20211;-69
2021/04/16 08:54:07;;;;;;;59.50;6.60;;;7.60;1.00;;;;;;5134672;27;20231;-69
2021/04/16 08:56:39;;;;;;;59.75;6.95;;;7.70;1.00;;;;;;5133805;27;20286;-68
2021/04/16 08:59:15;;;;;;;59.90;7.32;;;8.00;1.00;;;;;;5134937;27;20369;-69
2021/04/16 09:01:48;;;;;;;58.75;6.25;;;8.20;1.00;;;;;;5134774;27;20290;-68
2021/04/16 09:04:22;;;;;;;60.45;7.00;;;8.30;1.00;;;;;;5134426;27;20231;-69
2021/04/16 09:06:59;;;;;;;59.60;6.23;;;8.40;1.00;;;;;;5134637;27;20220;-68
2021/04/16 09:09:48;;;;;;;59.77;6.80;;;8.60;1.00;;;;;;5134271;27;20894;-68
2021/04/16 09:12:43;;;;;;;60.25;7.28;;;8.80;1.00;;;;;;5134639;27;20498;-69
2021/04/16 09:15:49;;;;;;;61.70;7.72;;;8.90;1.00;;;;;;5134516;27;20702;-70
2021/04/16 09:18:33;;;;;;;61.00;6.78;;;8.90;1.00;;;;;;5134517;27;20212;-70
2021/04/16 09:21:20;;;;;;;61.38;7.60;;;8.90;1.00;;;;;;5134528;27;20689;-70
2021/04/16 09:24:08;;;;;;;59.03;6.50;;;9.00;1.00;;;;;;5134145;27;20249;-68
2021/04/16 09:26:58;;;;;;;59.85;6.93;;;9.10;1.00;;;;;;5134434;27;20580;-69
2021/04/16 09:29:45;;;;;;;60.15;6.53;;;9.20;1.00;;;;;;5134204;27;20243;-68
2021/04/16 09:32:50;;;;;;;60.75;7.70;;;9.20;1.00;;;;;;5133833;27;20203;-69
2021/04/16 09:35:59;;;;;;;62.15;7.25;;;9.30;1.00;;;;;;5113417;28;20289;-69
2021/04/16 09:38:30;;;;;;;60.00;6.93;;;9.50;1.00;;;;;;5113214;28;20304;-69
2021/04/16 09:41:34;;;;;;;59.93;7.03;;;9.60;1.00;;;;;;5113710;28;20291;-68
2021/04/16 09:44:40;;;;;;;59.40;6.90;;;9.60;1.00;;;;;;5113325;28;20489;-68
2021/04/16 09:47:06;;;;;;;60.40;7.03;;;9.50;1.00;;;;;;5113416;28;20229;-68
2021/04/16 09:49:36;;;;;;;59.27;6.77;;;9.70;1.00;;;;;;5113246;28;20562;-69
2021/04/16 09:52:36;;;;;;;59.67;7.10;;;10.00;1.00;;;;;;5113466;28;20543;-68
2021/04/16 09:55:52;;;;;;;61.30;6.67;;;10.20;1.00;;;;;;5112839;28;20474;-69
2021/04/16 09:59:07;;;;;;;59.90;7.67;;;10.10;1.00;;;;;;5050155;28;21107;-68
2021/04/16 10:01:55;;;;;;;60.70;7.23;;;9.90;1.00;;;;;;5113016;28;20525;-69
2021/04/16 10:04:46;;;;;;;60.10;6.50;;;10.00;1.00;;;;;;5111791;28;20530;-69
2021/04/16 10:07:14;;;;;;;59.40;6.00;;;10.30;1.00;;;;;;5125064;27;20935;-69
2021/04/16 10:09:40;;;;;;;58.97;6.10;;;10.70;1.00;;;;;;5132862;27;20467;-68
2021/04/16 10:12:14;;;;;;;61.27;7.90;;;10.90;1.00;;;;;;5133531;27;20878;-69
2021/04/16 10:14:41;;;;;;;60.30;7.10;;;10.90;1.00;;;;;;5133421;27;20447;-69
2021/04/16 10:17:19;;;;;;;59.20;6.83;;;10.90;1.00;;;;;;5133168;27;20490;-69
2021/04/16 10:19:47;;;;;;;60.90;6.10;;;10.70;1.00;;;;;;5133342;27;20907;-68
2021/04/16 10:22:18;;;;;;;59.40;6.10;;;10.60;1.00;;;;;;5132902;27;21030;-69
2021/04/16 12:38:01;;;;;;;58.50;6.10;;;10.10;1.00;;;;;;5114663;28;20445;-68
2021/04/16 12:40:28;;;;;;;57.70;5.30;;;10.10;1.00;;;;;;5129420;27;20478;-68
2021/04/16 12:42:57;;;;;;;57.30;5.20;;;9.90;1.00;;;;;;5134890;27;20474;-69
2021/04/16 12:45:25;;;;;;;57.47;4.80;;;9.80;1.00;;;;;;5134927;27;20482;-69
2021/04/16 12:47:57;;;;;;;58.67;5.60;;;9.70;1.00;;;;;;5135100;27;20538;-69
2021/04/16 12:50:25;;;;;;;59.20;4.80;;;9.60;1.00;;;;;;5134815;27;20470;-69
2021/04/16 12:52:51;;;;;;;58.50;4.80;;;9.70;1.00;;;;;;5134880;27;21018;-69
2021/04/16 12:55:18;;;;;;;57.70;4.67;;;9.90;1.00;;;;;;5134836;27;21019;-69
2021/04/16 12:57:47;;;;;;;57.17;4.60;;;10.20;1.00;;;;;;5134700;27;20453;-69
2021/04/16 13:00:18;;;;;;;60.30;4.80;;;10.50;1.00;;;;;;5134607;27;20555;-68
2021/04/16 13:02:44;;;;;;;57.17;4.50;;;10.60;1.00;;;;;;5134694;27;20562;-69
2021/04/16 13:05:14;;;;;;;58.27;5.00;;;10.80;1.00;;;;;;5134786;27;20455;-69
2021/04/16 13:07:40;;;;;;;58.20;4.83;;;10.80;1.00;;;;;;5134715;27;20527;-70
2021/04/16 13:10:08;;;;;;;57.70;4.17;;;10.80;1.00;;;;;;5132952;27;20464;-68
2021/04/16 13:12:34;;;;;;;57.50;4.47;;;10.80;1.00;;;;;;5134370;27;20499;-68
2021/04/16 13:15:01;;;;;;;59.60;4.50;;;10.60;1.00;;;;;;5134421;27;20446;-68
2021/04/16 13:17:28;;;;;;;59.80;5.03;;;10.70;1.00;;;;;;5134589;27;20578;-68
2021/04/16 13:19:56;;;;;;;58.57;5.03;;;10.80;1.00;;;;;;5134265;27;20625;-68
2021/04/16 13:22:27;;;;;;;57.27;4.23;;;11.20;1.00;;;;;;5134335;27;20444;-68
2021/04/16 13:24:54;;;;;;;57.17;4.20;;;11.70;1.00;;;;;;5134239;27;20535;-68
2021/04/16 13:27:23;;;;;;;57.10;4.60;;;12.30;1.00;;;;;;5134081;27;20480;-68
2021/04/16 13:29:49;;;;;;;57.73;4.03;;;13.00;1.00;;;;;;5133830;27;21289;-69
2021/04/16 13:32:19;;;;;;;57.63;4.30;;;13.80;1.00;;;;;;5134438;27;20441;-68
2021/04/16 13:34:46;;;;;;;57.20;4.23;;;14.10;1.00;;;;;;5134153;27;20440;-69
2021/04/16 13:37:14;;;;;;;57.50;4.30;;;14.30;1.00;;;;;;5133941;27;20452;-69
2021/04/16 13:39:42;;;;;;;59.03;4.67;;;14.10;1.00;;;;;;5133865;27;20516;-69
2021/04/16 13:42:09;;;;;;;57.57;4.70;;;13.90;1.00;;;;;;5132293;27;20590;-69
2021/04/16 13:44:36;;;;;;;57.07;4.33;;;13.70;1.00;;;;;;5133643;27;20523;-69
2021/04/16 13:47:04;;;;;;;58.03;3.90;;;13.60;1.00;;;;;;5133891;27;20480;-69
2021/04/16 13:49:34;;;;;;;57.87;4.10;;;13.40;1.00;;;;;;5133643;27;20471;-69
2021/04/16 13:52:00;;;;;;;57.00;3.90;;;13.30;1.00;;;;;;5133785;27;20531;-69
2021/04/16 13:54:27;;;;;;;56.80;3.80;;;13.30;1.00;;;;;;5133687;27;20536;-69
2021/04/16 13:56:54;;;;;;;56.50;3.70;;;13.30;1.00;;;;;;5133394;27;20938;-70
2021/04/16 13:59:21;;;;;;;57.17;3.97;;;13.40;1.00;;;;;;5133616;27;20468;-69
2021/04/16 14:01:47;;;;;;;56.97;3.90;;;13.30;1.00;;;;;;5133746;27;20539;-69
2021/04/16 14:04:22;;;;;;;56.80;3.77;;;13.30;1.00;;;;;;5133554;27;20483;-68
2021/04/16 14:06:49;;;;;;;58.80;3.73;;;13.20;1.00;;;;;;5133215;27;20475;-69
2021/04/16 14:09:19;;;;;;;56.60;3.80;;;13.10;1.00;;;;;;5133244;27;20586;-69
2021/04/16 14:11:46;;;;;;;58.13;4.50;;;13.10;1.00;;;;;;5128577;27;20454;-69
2021/04/16 14:14:16;;;;;;;57.03;4.20;;;13.10;1.00;;;;;;5118946;27;20646;-69
2021/04/16 14:16:45;;;;;;;56.30;3.40;;;13.20;1.00;;;;;;5133428;27;20479;-69
2021/04/16 14:19:16;;;;;;;57.17;4.27;;;13.20;1.00;;;;;;5133123;27;20551;-68
2021/04/16 14:21:45;;;;;;;57.93;4.93;;;13.20;1.00;;;;;;5133617;27;20456;-69
2021/04/16 14:24:14;;;;;;;59.50;5.90;;;13.10;1.00;;;;;;5133243;27;20444;-69
2021/04/16 14:26:42;;;;;;;58.40;5.67;;;12.90;1.00;;;;;;5133128;27;20567;-69
2021/04/16 14:29:08;;;;;;;59.57;5.90;;;12.80;1.00;;;;;;5132810;27;20586;-68
2021/04/16 14:31:39;;;;;;;58.90;4.40;;;12.70;1.00;;;;;;5132977;27;20808;-69
2021/04/16 14:34:05;;;;;;;58.87;4.90;;;12.60;1.00;;;;;;5132835;27;20571;-69
2021/04/16 14:36:32;;;;;;;62.53;7.47;;;12.40;1.00;;;;;;5133065;27;20443;-69
2021/04/16 14:38:58;;;;;;;61.63;7.60;;;12.30;1.00;;;;;;5133104;27;20475;-68
2021/04/16 14:41:28;;;;;;;59.50;6.20;;;12.10;1.00;;;;;;5132623;27;20990;-68
2021/04/16 14:43:54;;;;;;;60.20;6.00;;;11.90;1.00;;;;;;5130537;27;21037;-68
2021/04/16 14:46:21;;;;;;;58.10;5.10;;;11.80;1.00;;;;;;5132580;27;21133;-68
2021/04/16 14:48:48;;;;;;;61.40;7.30;;;11.60;1.00;;;;;;5133031;27;20556;-68
2021/04/16 14:51:15;;;;;;;58.13;5.07;;;11.40;1.00;;;;;;5132665;27;20446;-68
2021/04/16 14:53:46;;;;;;;59.43;5.83;;;11.20;1.00;;;;;;5132629;27;20482;-68
2021/04/16 14:56:15;;;;;;;57.40;4.50;;;11.20;1.00;;;;;;5132263;27;20454;-68
2021/04/16 14:58:44;;;;;;;58.07;4.97;;;11.10;1.00;;;;;;5132653;27;20550;-68
2021/04/16 15:01:12;;;;;;;58.00;4.50;;;11.00;1.00;;;;;;5132535;27;20455;-68
2021/04/16 15:03:38;;;;;;;56.77;3.97;;;10.80;1.00;;;;;;5132358;27;20479;-68
2021/04/16 15:06:08;;;;;;;58.07;4.63;;;10.60;1.00;;;;;;5132575;27;20480;-68
2021/04/16 15:08:41;;;;;;;57.40;4.37;;;10.50;1.00;;;;;;5132735;27;20608;-68
2021/04/16 15:11:10;;;;;;;58.47;5.10;;;10.30;1.00;;;;;;5132522;27;20534;-69
2021/04/16 15:13:38;;;;;;;63.47;6.80;;;10.20;1.00;;;;;;5130929;27;20453;-69
2021/04/16 15:16:07;;;;;;;61.27;6.40;;;10.00;1.00;;;;;;5132068;27;20436;-68
2021/04/16 15:18:35;;;;;;;58.90;6.20;;;9.80;1.00;;;;;;5132575;27;20488;-68